Terminal Aerodrome Forecast
Issued by NWS

Home | Current Version | Previous Version | Graphics & Text | Print | Product List | Glossary On
Versions: 1 2 3 4 5 6 7 8 9 10 11 12 13 14 15 16 17 18 19 20 21 22 23 24 25 26 27 28
000
FTUS43 KABR 281437 AAA
TAFATY
TAF AMD
KATY 281437Z 2815/2912 23012KT P6SM FEW010 BKN017 BKN035
     FM281700 27015KT P6SM SCT017
     FM281800 27015G23KT P6SM SKC
     FM290300 26010KT P6SM SKC=

USA.gov is the U.S. government's official web portal to all federal, state and local government web resources and services.